• Join FlightAware (Why Join?)
  • Login
  • US Flag 
10:19PM EDT


 

Airport Tracker/Info


-or-


 

Live Flight TrackerFlight Track Log ✈ DAL6201 ✈ 15-Nov-2013 ✈ KPIT - KLGA

Flight Track Log - Related Links

Times and Time Zones

All times are in EST time to prevent confusion due to time zone crossing. See the DAL6201 flight status page for this flight to view local times or setup timezone preferences in your user account.

Time Position Orientation Groundspeed Altitude Reporting Facility
EST Latitude Longitude Course Direction KTS MPH feet Rate Location/Type
06:55PM 40.6003 -80.2836 78° East 287 330 5,100  Level Cleveland Center
06:56PM 40.6319 -80.1747 69° East 336 387 9,300 3,840 Climbing Cleveland Center
06:57PM 40.6433 -80.0297 84° East 335 386 13,200 2,880 Climbing Cleveland Center
06:58PM 40.6519 -79.8883 85° East 392 451 15,300 2,160 Climbing Cleveland Center
06:59PM 40.5481 -79.4118 80° East  Level Estimated
06:59PM 40.6603 -79.7381 86° East 408 470 17,700  Level Cleveland Center
07:00PM 40.5570 -79.2748 78° East  Level Estimated
07:00PM 40.6697 -79.5894 85° East 407 468 19,900  Level Cleveland Center
07:01PM 40.6778 -79.4403 86° East 408 470 21,800 1,740 Climbing Cleveland Center
07:02PM 40.6858 -79.2889 86° East 413 475 23,600 1,800 Climbing Cleveland Center
07:03PM 40.6936 -79.1389 86° East 412 474 25,600 1,800 Climbing Cleveland Center
07:04PM 40.7036 -78.9578 86° East 413 475 27,400 1,500 Climbing Cleveland Center
07:05PM 40.7108 -78.8172 86° East 411 473 28,700 720 Climbing Cleveland Center
07:06PM 40.7181 -78.6611 86° East 423 487 29,000 120 Climbing Cleveland Center
07:07PM 40.7286 -78.4672 86° East 448 516 29,000  Level Cleveland Center
07:08PM 40.7483 -78.3092 81° East 451 519 29,000  Level Cleveland Center
07:09PM 40.8183 -78.1767 55° Northeast 448 516 29,000  Level Cleveland Center
07:10PM 40.8875 -78.0458 55° Northeast 443 510 29,000  Level Cleveland Center
07:11PM 40.9264 -77.8672 74° East 432 497 29,000  Level Cleveland Center
07:12PM 40.9378 -77.7347 83° East 422 486 29,000  Level New York Center
07:13PM 40.9514 -77.5714 84° East 433 498 29,000 -60 Level New York Center
07:14PM 40.9647 -77.4103 84° East 440 506 28,900 -900 Descending New York Center
07:15PM 40.9767 -77.2356 85° East 452 520 27,300 -1,620 Descending New York Center
07:16PM 40.9922 -77.0611 83° East 467 537 25,700 -1,620 Descending New York Center
07:17PM 41.0053 -76.8917 84° East 467 537 24,100 -1,620 Descending New York Center
07:18PM 41.0156 -76.7278 85° East 455 524 22,500 -1,560 Descending New York Center
07:19PM 40.9983 -76.5750 98° East 444 511 21,000 -1,620 Descending New York Center
07:20PM 40.9656 -76.4347 107° East 419 482 19,300 -1,500 Descending New York Center
07:21PM 40.9325 -76.2944 107° East 404 465 18,000 -1,080 Descending New York Center
07:22PM 40.8975 -76.1489 108° East 387 445 17,200 -1,200 Descending New York Center
07:23PM 40.8639 -76.0147 108° East 382 440 15,700 -1,500 Descending New York Center
07:24PM 40.8322 -75.8833 108° East 376 433 14,200 -1,380 Descending New York Center
07:25PM 40.8039 -75.7661 108° East 371 427 13,000 -600 Descending New York Center
07:26PM 40.7717 -75.6375 108° East 371 427 13,000  Level New York Center
07:27PM 40.7414 -75.5147 108° East 371 427 13,000  Level New York Center
07:28PM 40.7097 -75.3675 106° East 378 435 13,000 -420 Level New York Center
07:29PM 40.6833 -75.2372 105° East 372 428 12,200 -900 Descending New York Center
07:30PM 40.6419 -75.1194 115° Southeast 359 413 11,200 -1,020 Descending New York Center
07:31PM 40.5767 -75.0197 131° Southeast 354 407 10,200 -660 Descending New York Center
07:32PM 40.5369 -74.9081 115° Southeast 349 402 9,900 -60 Descending New York Center
07:33PM 40.5167 -74.8333 110° East 319 367 10,100 120 Climbing New York TRACON
07:34PM 40.4833 -74.7333 114° Southeast 311 358 10,100  Level New York TRACON
07:35PM 40.4500 -74.6333 114° Southeast 307 353 10,100 -540 Level New York TRACON
07:36PM 40.4333 -74.5167 101° East 317 365 9,100 -1,020 Descending New York TRACON
07:37PM 40.4500 -74.4167 78° East 305 351 8,100 -540 Descending New York TRACON
07:38PM 40.4333 -74.3000 101° East 286 329 8,100 -60 Level New York TRACON
07:39PM 40.4833 -74.2167 52° Northeast 300 345 8,000 -960 Descending New York TRACON
07:40PM 40.5333 -74.1333 52° Northeast 289 333 6,200 -1,920 Descending New York TRACON
07:41PM 40.6000 -74.0667 37° Northeast 287 330 4,300 -1,080 Descending New York TRACON
07:42PM 40.6667 -74.0500 11° North 272 313 4,100 -120 Descending New York TRACON
07:43PM 40.7333 -74.0167 21° North 262 302 4,100  Level New York TRACON
07:44PM 40.8167 -73.9667 24° Northeast 269 310 4,100 -300 Level New York TRACON
07:45PM 40.8667 -73.9167 37° Northeast 225 259 3,500 -900 Descending New York TRACON
07:46PM 40.9000 -73.8667 49° Northeast 198 228 2,300 -780 Descending New York TRACON
07:47PM 40.9000 -73.8000 90° East 197 227 2,100 -300 Descending New York TRACON
07:48PM 40.8667 -73.8000 180° South 153 176 1,800 -300 Descending New York TRACON
07:49PM 40.8333 -73.8167 201° Southwest 117 135 1,600 -480 Descending New York TRACON
07:50PM 40.8167 -73.8500 237° Southwest 119 137 800 -840 Descending New York TRACON
07:52PM 40.7772 -73.8726 201° Southwest  Level Estimated
07:59PM 40.7772 -73.8726 201° Southwest  Level Estimated